Time;durP1;ratioP1;P1;durP2;ratioP2;P2;SDS_P1;SDS_P2;PMS_P1;PMS_P2;Temp;Humidity;BMP_temperature;BMP_pressure;BME280_temperature;BME280_humidity;BME280_pressure;Samples;Min_cycle;Max_cycle;Signal;HPM_P1;HPM_P2
2023/03/09 00:01:40;;;;;;;4.22;3.67;;;9.30;99.90;;;;;;5033272;28;20229;-93
2023/03/09 00:04:12;;;;;;;4.82;3.63;;;9.40;99.90;;;;;;5033522;28;20216;-94
2023/03/09 00:06:41;;;;;;;4.90;3.50;;;9.50;99.90;;;;;;5033886;28;20210;-94
2023/03/09 00:09:13;;;;;;;5.30;3.72;;;9.50;99.90;;;;;;5039680;28;20226;-93
2023/03/09 00:11:46;;;;;;;5.07;3.90;;;9.50;99.90;;;;;;5039029;28;20298;-93
2023/03/09 00:14:14;;;;;;;6.22;3.60;;;9.50;99.90;;;;;;5033218;28;20229;-94
2023/03/09 00:16:43;;;;;;;3.63;3.28;;;9.50;99.90;;;;;;5032937;28;20207;-94
2023/03/09 00:19:12;;;;;;;4.28;3.50;;;9.50;99.90;;;;;;5032803;28;20238;-94
2023/03/09 00:21:41;;;;;;;4.80;3.10;;;9.50;99.90;;;;;;5032933;28;20223;-93
2023/03/09 00:24:11;;;;;;;4.38;3.38;;;9.50;99.90;;;;;;5032976;28;20213;-93
2023/03/09 00:26:42;;;;;;;4.72;3.55;;;9.50;99.90;;;;;;5032603;28;20297;-91
2023/03/09 00:29:13;;;;;;;3.83;3.42;;;9.40;99.90;;;;;;5032556;28;20229;-93
2023/03/09 00:31:42;;;;;;;4.75;4.05;;;9.40;99.90;;;;;;5032972;28;20206;-93
2023/03/09 00:34:18;;;;;;;4.47;4.13;;;9.50;99.90;;;;;;5032998;28;20221;-93
2023/03/09 00:36:47;;;;;;;5.05;4.03;;;9.40;99.90;;;;;;5032333;28;20252;-93
2023/03/09 00:39:16;;;;;;;4.47;4.03;;;9.40;99.90;;;;;;5032342;28;20230;-92
2023/03/09 00:41:45;;;;;;;4.28;3.88;;;9.40;99.90;;;;;;5032340;28;20273;-92
2023/03/09 00:44:15;;;;;;;4.57;4.07;;;9.40;99.90;;;;;;5032719;28;20238;-92
2023/03/09 00:46:43;;;;;;;4.20;3.78;;;9.30;99.90;;;;;;5032068;28;20202;-92
2023/03/09 00:49:14;;;;;;;4.03;3.58;;;9.30;99.90;;;;;;5032260;28;20230;-93
2023/03/09 00:51:43;;;;;;;3.50;3.22;;;9.30;99.90;;;;;;5032030;28;20226;-94
2023/03/09 00:54:13;;;;;;;3.70;3.40;;;9.20;99.90;;;;;;5012642;28;20234;-93
2023/03/09 00:56:42;;;;;;;4.05;3.67;;;9.20;99.90;;;;;;5011518;28;20211;-92
2023/03/09 00:59:10;;;;;;;4.07;3.67;;;9.10;99.90;;;;;;5012385;28;20227;-93
2023/03/09 01:01:40;;;;;;;5.38;3.63;;;9.10;99.90;;;;;;5012267;28;20259;-92
2023/03/09 01:04:09;;;;;;;4.53;3.38;;;9.10;99.90;;;;;;5012189;28;20207;-94
2023/03/09 01:06:38;;;;;;;9.85;4.20;;;9.00;99.90;;;;;;5012682;28;20294;-93
2023/03/09 01:09:07;;;;;;;3.75;3.45;;;9.10;99.90;;;;;;5013014;28;20223;-92
2023/03/09 01:11:36;;;;;;;4.80;3.95;;;9.10;99.90;;;;;;5014845;28;20215;-93
2023/03/09 01:14:05;;;;;;;6.25;4.35;;;9.10;99.90;;;;;;5017824;28;20230;-93
2023/03/09 01:16:33;;;;;;;6.13;4.28;;;9.00;99.90;;;;;;5019748;28;20211;-92
2023/03/09 01:19:06;;;;;;;7.47;4.97;;;9.00;99.90;;;;;;5044664;28;20230;-92
2023/03/09 01:21:34;;;;;;;4.40;4.00;;;9.00;99.90;;;;;;5042122;28;20217;-92
2023/03/09 01:24:03;;;;;;;7.18;4.80;;;8.90;99.90;;;;;;5034373;28;20202;-93
2023/03/09 01:26:31;;;;;;;5.18;4.32;;;8.80;99.90;;;;;;5034077;28;20229;-92
2023/03/09 01:29:01;;;;;;;4.22;3.83;;;8.80;99.90;;;;;;5033514;28;20211;-93
2023/03/09 01:31:30;;;;;;;3.75;3.38;;;8.70;99.90;;;;;;5033701;28;20207;-92
2023/03/09 01:33:58;;;;;;;6.20;3.80;;;8.70;99.90;;;;;;5034124;28;20210;-93
2023/03/09 01:36:29;;;;;;;3.58;3.28;;;8.70;99.90;;;;;;5033692;28;20260;-93
2023/03/09 01:38:57;;;;;;;5.25;3.75;;;8.70;99.90;;;;;;5033505;28;20210;-93
2023/03/09 01:41:26;;;;;;;4.80;3.83;;;8.60;99.90;;;;;;5034017;28;20210;-92
2023/03/09 01:43:57;;;;;;;5.78;3.97;;;8.70;99.90;;;;;;5033431;28;20297;-93
2023/03/09 01:46:39;;;;;;;6.25;3.47;;;8.70;99.90;;;;;;5033738;28;20206;-93
2023/03/09 01:49:18;;;;;;;6.07;4.28;;;8.70;99.90;;;;;;5033301;28;20232;-92
2023/03/09 01:51:58;;;;;;;3.92;3.53;;;8.60;99.90;;;;;;5033665;28;20224;-92
2023/03/09 01:54:31;;;;;;;4.13;3.33;;;8.60;99.90;;;;;;5033946;28;20198;-92
2023/03/09 01:57:05;;;;;;;4.63;3.33;;;8.50;99.90;;;;;;5033067;28;20209;-92
2023/03/09 01:59:34;;;;;;;3.40;2.88;;;8.50;99.90;;;;;;5033436;28;20222;-93
2023/03/09 02:02:03;;;;;;;4.47;3.53;;;8.50;99.90;;;;;;5033244;28;20206;-93
2023/03/09 02:04:37;;;;;;;3.60;3.30;;;8.50;99.90;;;;;;5033694;28;20228;-92
2023/03/09 02:07:07;;;;;;;3.25;2.92;;;8.50;99.90;;;;;;5033259;28;20261;-93
2023/03/09 02:09:40;;;;;;;4.13;3.70;;;8.50;99.90;;;;;;5033249;28;20231;-92
2023/03/09 02:12:12;;;;;;;5.25;3.38;;;8.40;99.90;;;;;;5033394;28;20210;-93
2023/03/09 02:14:42;;;;;;;3.88;3.50;;;8.40;99.90;;;;;;5033092;28;20297;-92
2023/03/09 02:17:12;;;;;;;3.20;2.90;;;8.40;99.90;;;;;;5032710;28;20211;-91
2023/03/09 02:19:50;;;;;;;3.33;3.03;;;8.50;99.90;;;;;;5032656;28;20230;-92
2023/03/09 02:22:20;;;;;;;3.80;3.22;;;8.50;99.90;;;;;;5033161;28;20216;-92
2023/03/09 02:24:57;;;;;;;4.05;3.30;;;8.50;99.90;;;;;;5033447;28;20249;-93
2023/03/09 02:27:29;;;;;;;3.63;3.20;;;8.50;99.90;;;;;;5033101;28;20212;-94
2023/03/09 02:29:58;;;;;;;4.32;3.35;;;8.50;99.90;;;;;;5035320;28;20309;-94
2023/03/09 02:32:26;;;;;;;3.33;3.03;;;8.50;99.90;;;;;;5037163;28;20207;-92
2023/03/09 02:34:56;;;;;;;3.30;3.00;;;8.60;99.90;;;;;;5037531;28;20210;-92
2023/03/09 02:37:32;;;;;;;5.20;3.97;;;8.80;99.90;;;;;;5036794;28;20237;-93
2023/03/09 02:40:07;;;;;;;2.83;2.60;;;8.90;99.90;;;;;;5037306;28;20288;-93
2023/03/09 02:42:38;;;;;;;3.63;3.20;;;9.00;99.90;;;;;;5037488;28;20312;-93
2023/03/09 02:45:08;;;;;;;5.50;3.70;;;9.10;99.90;;;;;;5042477;28;20210;-94
2023/03/09 02:47:38;;;;;;;4.07;3.72;;;9.20;99.90;;;;;;5042527;28;20213;-93
2023/03/09 02:50:09;;;;;;;6.05;4.25;;;9.20;99.90;;;;;;5044261;28;20258;-94
2023/03/09 02:52:37;;;;;;;3.33;2.97;;;9.20;99.90;;;;;;5055061;28;20216;-93
2023/03/09 02:55:07;;;;;;;3.20;2.90;;;9.20;99.90;;;;;;5050134;28;20269;-94
2023/03/09 02:57:37;;;;;;;2.97;2.78;;;9.20;99.90;;;;;;5036887;28;20202;-94
2023/03/09 03:00:08;;;;;;;3.35;3.08;;;9.20;99.90;;;;;;5037167;28;20242;-93
2023/03/09 03:02:37;;;;;;;2.97;2.78;;;9.20;99.90;;;;;;5036932;28;20202;-94
2023/03/09 03:05:07;;;;;;;3.42;2.85;;;9.20;99.90;;;;;;5036388;28;20202;-93
2023/03/09 03:07:35;;;;;;;4.50;3.20;;;9.20;99.90;;;;;;5036512;28;20269;-94
2023/03/09 03:10:04;;;;;;;3.08;2.85;;;9.10;99.90;;;;;;5036913;28;20308;-94
2023/03/09 03:12:32;;;;;;;3.40;3.10;;;9.10;99.90;;;;;;5036760;28;20261;-93
2023/03/09 03:15:02;;;;;;;3.75;3.40;;;9.00;99.90;;;;;;5036532;28;20216;-94
2023/03/09 03:17:31;;;;;;;3.35;2.92;;;9.10;99.90;;;;;;5036175;28;20210;-94
2023/03/09 03:19:59;;;;;;;3.30;2.88;;;9.10;99.90;;;;;;5036425;28;20309;-93
2023/03/09 03:22:28;;;;;;;4.32;3.17;;;9.10;99.90;;;;;;5036450;28;20209;-93
2023/03/09 03:24:56;;;;;;;9.45;3.45;;;9.10;99.90;;;;;;5036219;28;20318;-93
2023/03/09 03:27:24;;;;;;;3.08;2.63;;;9.00;99.90;;;;;;5035475;28;20232;-92
2023/03/09 03:29:53;;;;;;;4.72;3.13;;;9.00;99.90;;;;;;5036157;28;20242;-92
2023/03/09 03:32:22;;;;;;;4.32;3.28;;;9.00;99.90;;;;;;5035875;28;20207;-93
2023/03/09 03:34:51;;;;;;;5.60;3.45;;;8.90;99.90;;;;;;5036075;28;20288;-92
2023/03/09 03:37:19;;;;;;;3.47;3.05;;;8.90;99.90;;;;;;5035735;28;20213;-93
2023/03/09 03:39:47;;;;;;;12.20;3.50;;;8.90;99.90;;;;;;5035970;28;20228;-93
2023/03/09 03:42:16;;;;;;;5.72;3.35;;;8.80;99.90;;;;;;5035501;28;20259;-93
2023/03/09 03:44:44;;;;;;;3.95;3.30;;;8.70;99.90;;;;;;5035203;28;20334;-92
2023/03/09 03:47:13;;;;;;;5.75;3.85;;;8.70;99.90;;;;;;5035418;28;20210;-92
2023/03/09 03:49:42;;;;;;;4.05;3.42;;;8.60;99.90;;;;;;5035463;28;20223;-92
2023/03/09 03:52:12;;;;;;;4.03;3.13;;;8.60;99.90;;;;;;5035822;28;20266;-92
2023/03/09 03:54:40;;;;;;;6.78;3.72;;;8.60;99.90;;;;;;5035445;28;20262;-92
2023/03/09 03:57:09;;;;;;;3.70;3.40;;;8.50;99.90;;;;;;5035507;28;20260;-93
2023/03/09 03:59:37;;;;;;;4.20;3.88;;;8.60;99.90;;;;;;5035990;28;20226;-94
2023/03/09 04:02:05;;;;;;;4.82;3.78;;;8.50;99.90;;;;;;5036074;28;20213;-93
2023/03/09 04:04:34;;;;;;;3.55;3.25;;;8.50;99.90;;;;;;5035881;28;20222;-93
2023/03/09 04:07:04;;;;;;;3.47;3.17;;;8.50;99.90;;;;;;5044217;28;20206;-93
2023/03/09 04:09:32;;;;;;;5.30;3.80;;;8.40;99.90;;;;;;5043331;28;20238;-92
2023/03/09 04:12:00;;;;;;;3.60;3.30;;;8.40;99.90;;;;;;5050794;28;20214;-93
2023/03/09 04:14:29;;;;;;;3.92;3.58;;;8.30;99.90;;;;;;5058872;28;20187;-92
2023/03/09 04:16:57;;;;;;;3.97;3.50;;;8.30;99.90;;;;;;5041544;28;20202;-93
2023/03/09 04:19:27;;;;;;;3.38;3.08;;;8.30;99.90;;;;;;5034750;28;20218;-92
2023/03/09 04:21:57;;;;;;;3.40;3.10;;;8.30;99.90;;;;;;5035469;28;20226;-92
2023/03/09 04:24:27;;;;;;;3.88;3.50;;;8.30;99.90;;;;;;5034980;28;20215;-92
2023/03/09 04:26:55;;;;;;;3.28;2.97;;;8.20;99.90;;;;;;5034910;28;20214;-93
2023/03/09 04:29:24;;;;;;;4.00;3.65;;;8.20;99.90;;;;;;5035018;28;20238;-93
2023/03/09 04:31:52;;;;;;;4.72;3.70;;;8.20;99.90;;;;;;5035288;28;20250;-93
2023/03/09 04:34:20;;;;;;;4.40;3.75;;;8.20;99.90;;;;;;5034916;28;20266;-93
2023/03/09 04:36:49;;;;;;;4.85;4.43;;;8.20;99.90;;;;;;5034503;28;20210;-93
2023/03/09 04:39:17;;;;;;;13.85;4.60;;;8.20;99.90;;;;;;5035090;28;20230;-92
2023/03/09 04:41:47;;;;;;;3.50;3.15;;;8.10;99.90;;;;;;5035269;28;20211;-93
2023/03/09 04:44:16;;;;;;;4.07;3.75;;;8.10;99.90;;;;;;5034381;28;20246;-92
2023/03/09 04:46:44;;;;;;;4.50;4.10;;;8.10;99.90;;;;;;5034617;28;20198;-92
2023/03/09 04:49:13;;;;;;;4.47;3.88;;;8.00;99.90;;;;;;5033980;28;20261;-92
2023/03/09 04:51:41;;;;;;;5.07;3.72;;;8.00;99.90;;;;;;5033700;28;20241;-92
2023/03/09 04:54:10;;;;;;;5.22;3.95;;;7.90;99.90;;;;;;5034159;28;20211;-92
2023/03/09 04:56:40;;;;;;;4.03;3.63;;;7.90;99.90;;;;;;5034875;28;20269;-92
2023/03/09 04:59:18;;;;;;;6.70;4.63;;;7.90;99.90;;;;;;5043073;28;20313;-96
2023/03/09 05:01:47;;;;;;;5.30;4.38;;;7.90;99.90;;;;;;5034520;28;20203;-90
2023/03/09 05:04:15;;;;;;;4.45;3.13;;;7.90;99.90;;;;;;5033803;28;20225;-90
2023/03/09 05:06:46;;;;;;;6.00;3.50;;;7.80;99.90;;;;;;5033626;28;20218;-89
2023/03/09 05:09:18;;;;;;;3.65;3.38;;;7.80;99.90;;;;;;5034180;28;20229;-90
2023/03/09 05:11:55;;;;;;;4.47;4.07;;;7.80;99.90;;;;;;5034368;28;20206;-90
2023/03/09 05:14:26;;;;;;;4.10;3.55;;;7.80;99.90;;;;;;5034567;28;20232;-90
2023/03/09 05:16:55;;;;;;;4.13;3.67;;;7.70;99.90;;;;;;5033681;28;20216;-90
2023/03/09 05:19:24;;;;;;;5.90;3.88;;;7.80;99.90;;;;;;5034325;28;20234;-91
2023/03/09 05:21:55;;;;;;;4.13;3.75;;;7.70;99.90;;;;;;5035239;28;20203;-90
2023/03/09 05:24:26;;;;;;;3.53;3.22;;;7.70;99.90;;;;;;5034903;28;20222;-91
2023/03/09 05:27:01;;;;;;;6.78;4.40;;;7.70;99.90;;;;;;5036218;28;20253;-90
2023/03/09 05:29:33;;;;;;;4.78;4.28;;;7.60;99.90;;;;;;5033951;28;20226;-91
2023/03/09 05:32:04;;;;;;;3.85;3.50;;;7.70;99.90;;;;;;5033734;28;20234;-90
2023/03/09 05:34:38;;;;;;;5.28;4.63;;;7.60;99.90;;;;;;5033384;28;20205;-90
2023/03/09 05:37:12;;;;;;;4.25;3.85;;;7.60;99.90;;;;;;5027452;28;20221;-90
2023/03/09 05:39:43;;;;;;;5.63;4.22;;;7.60;99.90;;;;;;5042484;28;20244;-91
2023/03/09 05:42:19;;;;;;;5.78;4.43;;;7.70;99.90;;;;;;5053683;28;20197;-90
2023/03/09 05:45:00;;;;;;;4.45;3.83;;;7.80;99.90;;;;;;5044703;28;20214;-92
2023/03/09 05:47:31;;;;;;;4.35;3.53;;;7.80;99.90;;;;;;5034253;28;20209;-91
2023/03/09 05:50:02;;;;;;;2.22;2.03;;;7.90;99.90;;;;;;5030763;28;20226;-91
2023/03/09 05:52:34;;;;;;;2.17;2.08;;;8.40;99.90;;;;;;5021881;28;20282;-91
2023/03/09 05:55:03;;;;;;;2.40;2.20;;;9.10;99.90;;;;;;5026308;28;20187;-91
2023/03/09 05:57:37;;;;;;;3.03;2.45;;;9.60;99.90;;;;;;5013473;28;20231;-91
2023/03/09 06:00:20;;;;;;;2.92;2.08;;;9.80;99.90;;;;;;5031877;28;20231;-91
2023/03/09 06:02:52;;;;;;;1.75;1.65;;;9.90;99.90;;;;;;5013342;28;20206;-92
2023/03/09 06:05:21;;;;;;;1.92;1.48;;;9.90;99.90;;;;;;5013178;28;20227;-92
2023/03/09 06:07:51;;;;;;;2.03;1.85;;;10.00;99.90;;;;;;5013196;28;20279;-89
2023/03/09 06:10:22;;;;;;;1.70;1.60;;;10.00;99.90;;;;;;5014182;28;20231;-93
2023/03/09 06:12:51;;;;;;;3.70;1.67;;;10.10;99.90;;;;;;5013438;28;20218;-92
2023/03/09 06:15:22;;;;;;;1.45;1.35;;;10.30;99.90;;;;;;5025982;28;20233;-93
2023/03/09 06:17:51;;;;;;;2.15;1.70;;;10.50;99.90;;;;;;5023716;28;20211;-91
2023/03/09 06:20:20;;;;;;;1.42;1.27;;;10.80;99.90;;;;;;5013302;28;20230;-92
2023/03/09 06:22:48;;;;;;;2.00;1.63;;;11.00;99.90;;;;;;5013042;28;20210;-90
2023/03/09 06:25:17;;;;;;;1.10;1.10;;;11.00;99.90;;;;;;5028299;28;20221;-85
2023/03/09 06:27:45;;;;;;;1.40;1.30;;;11.00;99.90;;;;;;5032480;28;20266;-84
2023/03/09 06:30:14;;;;;;;1.40;1.30;;;11.10;99.90;;;;;;5032735;28;20226;-85
2023/03/09 06:32:44;;;;;;;1.23;1.13;;;11.20;99.90;;;;;;5033291;28;20214;-85
2023/03/09 06:35:12;;;;;;;1.15;1.15;;;11.30;99.90;;;;;;5033173;28;20233;-85
2023/03/09 06:37:40;;;;;;;1.17;1.08;;;11.40;99.90;;;;;;5032905;28;20214;-84
2023/03/09 06:40:12;;;;;;;1.48;1.25;;;11.50;99.90;;;;;;5033257;28;20225;-83
2023/03/09 06:42:42;;;;;;;1.05;1.05;;;11.70;99.90;;;;;;5033015;28;20213;-87
2023/03/09 06:45:11;;;;;;;1.17;1.08;;;11.90;99.90;;;;;;5033252;28;20228;-86
2023/03/09 06:47:39;;;;;;;5.05;1.25;;;12.00;99.90;;;;;;5032119;28;20202;-85
2023/03/09 06:50:10;;;;;;;1.15;1.13;;;12.10;99.90;;;;;;5032722;28;20230;-84
2023/03/09 06:52:39;;;;;;;1.20;1.10;;;12.10;99.90;;;;;;5032458;28;20209;-82
2023/03/09 06:55:08;;;;;;;1.48;1.10;;;12.20;99.90;;;;;;5032406;28;20203;-81
2023/03/09 06:57:43;;;;;;;1.38;1.27;;;12.20;99.90;;;;;;5032447;28;20221;-80
2023/03/09 07:00:13;;;;;;;1.35;1.25;;;12.30;99.90;;;;;;5032162;28;20233;-80
2023/03/09 07:02:41;;;;;;;1.30;1.20;;;12.20;99.90;;;;;;5032077;28;20221;-80
2023/03/09 07:05:12;;;;;;;0.95;0.95;;;12.30;99.90;;;;;;5032132;28;20225;-80
2023/03/09 07:07:42;;;;;;;0.88;0.88;;;12.30;99.90;;;;;;5031662;28;20206;-81
2023/03/09 07:10:11;;;;;;;1.08;1.00;;;12.30;99.90;;;;;;5032274;28;20226;-80
2023/03/09 07:12:39;;;;;;;0.80;0.63;;;12.20;99.90;;;;;;5032176;28;20202;-79
2023/03/09 07:15:09;;;;;;;1.92;1.15;;;12.30;99.90;;;;;;5032471;28;20213;-82
2023/03/09 07:17:37;;;;;;;0.85;0.85;;;12.30;99.90;;;;;;5035095;28;20213;-82
2023/03/09 07:20:06;;;;;;;0.82;0.82;;;12.30;99.90;;;;;;5035384;28;20226;-82
2023/03/09 07:22:36;;;;;;;0.70;0.70;;;12.30;99.90;;;;;;5034579;28;20212;-82
2023/03/09 07:25:05;;;;;;;2.60;0.80;;;12.40;99.90;;;;;;5030533;28;20242;-82
2023/03/09 07:27:33;;;;;;;1.88;0.90;;;12.50;99.90;;;;;;5014601;28;20218;-82
2023/03/09 07:30:03;;;;;;;0.80;0.80;;;12.50;99.90;;;;;;5015881;28;20223;-82
2023/03/09 07:32:31;;;;;;;0.75;0.75;;;12.50;99.90;;;;;;5015721;28;20211;-82
2023/03/09 07:35:00;;;;;;;1.63;1.05;;;12.60;99.90;;;;;;5015715;28;20223;-82
2023/03/09 07:37:28;;;;;;;0.80;0.80;;;12.70;99.90;;;;;;5014850;28;20280;-82
2023/03/09 07:39:57;;;;;;;0.75;0.75;;;12.70;99.90;;;;;;5015566;28;20242;-82
2023/03/09 07:42:26;;;;;;;1.42;0.70;;;12.80;99.90;;;;;;5034880;28;20203;-82
2023/03/09 07:45:05;;;;;;;1.80;0.95;;;12.90;99.90;;;;;;5030568;28;20202;-82
2023/03/09 07:47:33;;;;;;;1.15;0.63;;;13.00;99.90;;;;;;5020127;28;20206;-82
2023/03/09 07:50:03;;;;;;;0.60;0.60;;;13.00;99.90;;;;;;5014780;28;20313;-83
2023/03/09 07:52:31;;;;;;;1.23;1.08;;;13.00;99.90;;;;;;5018657;28;20285;-82
2023/03/09 07:55:02;;;;;;;0.82;0.82;;;13.00;99.90;;;;;;5034900;28;20198;-82
2023/03/09 07:57:31;;;;;;;0.60;0.60;;;13.10;99.90;;;;;;5034648;28;20207;-82
2023/03/09 08:00:00;;;;;;;0.70;0.70;;;13.20;99.90;;;;;;5034874;28;20226;-82
2023/03/09 08:02:29;;;;;;;0.88;0.88;;;13.40;99.90;;;;;;5033689;28;20293;-83
2023/03/09 08:04:57;;;;;;;0.45;0.45;;;13.60;99.90;;;;;;5052268;28;20290;-83
2023/03/09 08:07:26;;;;;;;0.80;0.80;;;13.70;99.90;;;;;;5047543;28;20218;-82
2023/03/09 08:09:55;;;;;;;0.40;0.40;;;13.80;99.90;;;;;;5043613;28;20230;-82
2023/03/09 08:12:25;;;;;;;0.70;0.57;;;13.90;99.90;;;;;;5054491;28;20216;-82
2023/03/09 08:14:53;;;;;;;0.70;0.70;;;13.80;99.90;;;;;;5054351;28;20213;-82
2023/03/09 08:17:21;;;;;;;0.50;0.50;;;13.80;99.90;;;;;;5053917;28;20205;-82
2023/03/09 08:19:50;;;;;;;0.85;0.75;;;13.90;99.90;;;;;;5044612;28;20230;-82
2023/03/09 08:22:18;;;;;;;0.45;0.40;;;14.00;99.90;;;;;;5021433;28;20207;-81
2023/03/09 08:24:46;;;;;;;0.65;0.65;;;14.00;99.90;;;;;;5014507;28;20222;-81
2023/03/09 08:27:15;;;;;;;0.65;0.63;;;14.00;99.90;;;;;;5014044;28;20238;-82
2023/03/09 08:29:44;;;;;;;0.98;0.50;;;14.20;99.90;;;;;;5014298;28;20237;-82
2023/03/09 08:32:13;;;;;;;0.57;0.55;;;14.20;99.90;;;;;;5014448;28;20211;-82
2023/03/09 08:34:41;;;;;;;0.50;0.50;;;14.50;99.90;;;;;;5014644;28;20211;-82
2023/03/09 08:37:10;;;;;;;0.80;0.80;;;14.60;99.90;;;;;;5014016;28;20230;-82
2023/03/09 08:39:38;;;;;;;0.60;0.60;;;14.60;99.90;;;;;;5014409;28;20323;-82
2023/03/09 08:42:06;;;;;;;1.00;0.80;;;14.60;99.90;;;;;;5014520;28;20211;-82
2023/03/09 08:44:35;;;;;;;1.05;0.85;;;14.60;99.90;;;;;;5014394;28;20211;-82
2023/03/09 08:47:04;;;;;;;0.57;0.57;;;14.70;99.90;;;;;;5013563;28;20243;-82
2023/03/09 08:49:33;;;;;;;0.85;0.70;;;14.80;99.90;;;;;;5050588;28;20222;-83
2023/03/09 08:52:01;;;;;;;0.70;0.70;;;14.90;99.90;;;;;;5053855;28;20209;-83
2023/03/09 08:54:34;;;;;;;0.73;0.70;;;14.90;99.90;;;;;;5053702;28;20210;-82
2023/03/09 08:57:02;;;;;;;0.88;0.68;;;14.80;99.90;;;;;;5042196;28;20198;-83
2023/03/09 08:59:31;;;;;;;0.50;0.50;;;14.80;99.90;;;;;;5033864;28;20226;-83
2023/03/09 09:01:59;;;;;;;2.42;0.90;;;14.80;99.90;;;;;;5034011;28;20288;-83
2023/03/09 09:04:29;;;;;;;0.80;0.80;;;14.80;99.90;;;;;;5034027;28;20283;-82
2023/03/09 09:06:58;;;;;;;52.05;4.85;;;14.70;99.90;;;;;;5032701;28;20225;-82
2023/03/09 09:09:26;;;;;;;5.00;1.60;;;14.60;99.90;;;;;;5033502;28;20237;-82
2023/03/09 09:11:54;;;;;;;0.80;0.80;;;14.50;99.90;;;;;;5033440;28;20205;-82
2023/03/09 09:14:23;;;;;;;0.75;0.60;;;14.60;99.90;;;;;;5020959;28;20198;-82
2023/03/09 09:16:51;;;;;;;0.50;0.50;;;14.70;99.90;;;;;;5033061;28;20210;-82
2023/03/09 09:19:20;;;;;;;2.00;0.82;;;14.80;99.90;;;;;;5031988;28;20227;-82
2023/03/09 09:21:51;;;;;;;0.47;0.47;;;14.80;99.90;;;;;;5033576;28;20219;-82
2023/03/09 09:24:20;;;;;;;0.38;0.38;;;14.80;99.90;;;;;;5032925;28;20291;-83
2023/03/09 09:26:48;;;;;;;2.30;0.63;;;15.40;99.90;;;;;;5032573;28;20317;-82
2023/03/09 09:29:16;;;;;;;0.88;0.88;;;15.80;99.90;;;;;;5033079;28;20233;-82
2023/03/09 09:31:44;;;;;;;0.93;0.73;;;16.00;99.90;;;;;;5033065;28;20245;-82
2023/03/09 09:34:13;;;;;;;6.95;0.95;;;15.80;99.90;;;;;;5032141;28;20210;-81
2023/03/09 09:36:41;;;;;;;0.82;0.60;;;15.70;99.90;;;;;;5039968;28;20200;-83
2023/03/09 09:39:12;;;;;;;2.38;0.98;;;15.50;99.90;;;;;;5052081;28;20218;-81
2023/03/09 09:41:45;;;;;;;2.50;0.95;;;15.60;99.90;;;;;;5039060;28;20209;-82
2023/03/09 09:44:16;;;;;;;;;;;15.90;99.90;;;;;;5033239;28;20177;-82
2023/03/09 09:46:45;;;;;;;;;;;16.30;99.90;;;;;;5032587;28;19927;-82
2023/03/09 09:49:19;;;;;;;1.25;0.88;;;16.40;99.90;;;;;;5031847;28;20004;-82
2023/03/09 09:52:11;;;;;;;0.50;0.50;;;16.20;99.90;;;;;;5032308;28;20213;-82
2023/03/09 09:54:49;;;;;;;0.80;0.80;;;15.70;99.90;;;;;;5032821;28;20202;-82
2023/03/09 09:57:21;;;;;;;0.60;0.60;;;15.40;99.90;;;;;;5032394;28;20205;-82
2023/03/09 09:59:59;;;;;;;1.08;0.98;;;15.50;99.90;;;;;;5032706;28;20245;-82
2023/03/09 10:02:49;;;;;;;0.32;0.32;;;15.40;99.90;;;;;;5032713;28;20297;-83
2023/03/09 10:05:23;;;;;;;0.70;0.70;;;15.20;99.90;;;;;;5032583;28;20249;-83
2023/03/09 10:07:52;;;;;;;5.18;0.80;;;15.30;99.90;;;;;;5031906;28;20218;-83
2023/03/09 10:10:28;;;;;;;0.95;0.60;;;15.50;99.90;;;;;;5029339;28;20274;-82
2023/03/09 10:13:05;;;;;;;1.05;0.95;;;15.10;99.90;;;;;;5012604;28;20278;-82
2023/03/09 10:15:38;;;;;;;0.50;0.50;;;14.80;99.90;;;;;;5013093;28;20210;-82
2023/03/09 10:18:11;;;;;;;0.55;0.55;;;14.80;99.90;;;;;;5025055;28;20190;-83
2023/03/09 10:20:44;;;;;;;0.88;0.80;;;14.80;99.90;;;;;;5020737;28;20272;-83
2023/03/09 10:23:19;;;;;;;0.75;0.70;;;14.70;99.90;;;;;;5029175;28;20303;-83
2023/03/09 10:25:52;;;;;;;0.85;0.85;;;14.90;99.90;;;;;;5052177;28;20221;-83
2023/03/09 10:28:25;;;;;;;0.68;0.55;;;14.70;99.90;;;;;;5051303;28;20256;-82
2023/03/09 10:31:01;;;;;;;0.63;0.60;;;14.60;99.90;;;;;;5052633;28;20230;-82
2023/03/09 10:33:39;;;;;;;0.43;0.43;;;14.40;99.90;;;;;;5037843;28;20264;-82
2023/03/09 10:36:10;;;;;;;2.60;0.63;;;14.30;99.90;;;;;;5024238;28;20213;-82
2023/03/09 10:38:40;;;;;;;0.43;0.43;;;14.40;99.90;;;;;;5027627;28;20201;-84
2023/03/09 10:41:17;;;;;;;1.48;0.90;;;14.30;99.90;;;;;;5032044;28;20231;-87
2023/03/09 10:43:46;;;;;;;1.95;0.85;;;14.30;99.90;;;;;;5032049;28;20212;-82
2023/03/09 10:46:16;;;;;;;0.70;0.68;;;14.60;99.90;;;;;;5049469;28;20204;-81
2023/03/09 10:48:46;;;;;;;0.80;0.80;;;14.50;99.90;;;;;;5051404;28;20325;-80
2023/03/09 10:51:26;;;;;;;1.20;1.02;;;14.50;99.90;;;;;;5051332;28;20194;-81
2023/03/09 10:53:56;;;;;;;6.85;0.95;;;14.40;99.90;;;;;;5055883;28;20216;-81
2023/03/09 10:56:28;;;;;;;0.60;0.60;;;14.40;99.90;;;;;;5055620;28;20212;-81
2023/03/09 10:59:14;;;;;;;0.73;0.73;;;14.50;99.90;;;;;;5051813;28;20195;-81
2023/03/09 11:01:44;;;;;;;2.50;0.98;;;14.50;99.90;;;;;;5035313;28;20224;-81
2023/03/09 11:04:36;;;;;;;7.57;1.17;;;14.80;99.90;;;;;;5031027;28;20210;-83
2023/03/09 11:07:06;;;;;;;7.70;1.52;;;15.40;99.90;;;;;;5027706;28;20210;-81
2023/03/09 11:09:37;;;;;;;5.07;1.00;;;15.50;99.90;;;;;;5031536;28;20309;-81
2023/03/09 11:12:18;;;;;;;0.82;0.82;;;15.70;99.90;;;;;;5035594;28;20206;-81
2023/03/09 11:14:50;;;;;;;1.75;0.77;;;15.80;99.90;;;;;;5021317;28;20271;-81
2023/03/09 11:17:37;;;;;;;1.00;1.00;;;15.90;99.90;;;;;;5047856;28;20198;-81
2023/03/09 11:20:25;;;;;;;1.48;1.00;;;16.10;99.90;;;;;;5052705;28;20247;-81
2023/03/09 11:23:06;;;;;;;1.75;1.15;;;16.50;99.90;;;;;;5054823;28;20262;-81
2023/03/09 11:25:54;;;;;;;1.08;0.98;;;16.30;99.90;;;;;;5055440;28;20219;-81
2023/03/09 11:28:32;;;;;;;0.85;0.85;;;15.90;99.90;;;;;;5035354;28;20224;-81
2023/03/09 11:31:00;;;;;;;1.23;0.98;;;16.00;99.90;;;;;;5034870;28;20264;-82
2023/03/09 11:33:31;;;;;;;2.35;1.33;;;16.20;99.90;;;;;;5034644;28;20319;-82
2023/03/09 11:35:59;;;;;;;1.55;1.00;;;15.90;99.90;;;;;;5035339;28;20210;-82
2023/03/09 11:38:30;;;;;;;1.80;1.48;;;16.20;99.90;;;;;;5034791;28;20217;-82
2023/03/09 11:41:09;;;;;;;0.82;0.80;;;16.10;99.90;;;;;;5035058;28;20232;-82
2023/03/09 11:43:42;;;;;;;1.20;1.00;;;15.90;99.90;;;;;;5034955;28;20285;-82
2023/03/09 11:46:14;;;;;;;1.60;1.50;;;15.80;99.90;;;;;;5034965;28;20214;-82
2023/03/09 11:48:45;;;;;;;1.67;1.10;;;16.10;99.90;;;;;;5013187;28;20242;-82
2023/03/09 11:51:19;;;;;;;1.92;1.30;;;16.40;99.90;;;;;;5014708;28;20218;-82
2023/03/09 11:53:55;;;;;;;2.38;1.10;;;16.60;99.90;;;;;;5015317;28;20188;-82
2023/03/09 11:56:26;;;;;;;;;;;16.50;99.90;;;;;;5015802;28;20054;-81
2023/03/09 11:58:59;;;;;;;;;;;16.80;99.90;;;;;;5016655;28;19925;-82
2023/03/09 12:01:33;;;;;;;6.68;1.52;;;17.30;99.90;;;;;;5031618;28;20085;-82
2023/03/09 12:04:02;;;;;;;;;;;17.40;99.80;;;;;;5035041;28;20057;-82
2023/03/09 12:06:35;;;;;;;;;;;17.80;99.50;;;;;;5035135;28;19928;-82
2023/03/09 12:09:05;;;;;;;;;;;18.40;98.70;;;;;;5034558;28;19959;-82
2023/03/09 12:11:40;;;;;;;1.10;1.00;;;18.40;97.50;;;;;;5032493;28;20080;-82
2023/03/09 12:14:20;;;;;;;1.42;1.30;;;17.70;97.80;;;;;;5031771;28;25049;-82
2023/03/09 12:16:53;;;;;;;1.50;1.33;;;17.40;97.70;;;;;;5033895;28;20248;-82
2023/03/09 12:19:24;;;;;;;1.40;1.30;;;17.10;97.80;;;;;;5034013;28;20245;-82
2023/03/09 12:22:02;;;;;;;1.10;1.00;;;17.20;97.70;;;;;;5030461;28;20129;-82
2023/03/09 12:24:38;;;;;;;;;;;17.60;97.50;;;;;;5033788;28;25067;-81
2023/03/09 12:27:17;;;;;;;0.98;0.85;;;17.70;97.20;;;;;;5032634;28;19978;-81
2023/03/09 12:29:48;;;;;;;1.55;1.50;;;17.60;97.30;;;;;;5033574;28;20248;-81
2023/03/09 12:32:42;;;;;;;1.55;1.45;;;17.10;97.90;;;;;;5050097;28;20139;-81
2023/03/09 12:35:31;;;;;;;1.40;1.30;;;17.30;98.00;;;;;;5041253;28;20173;-81
2023/03/09 12:38:22;;;;;;;1.40;1.30;;;17.50;97.50;;;;;;5033289;28;20222;-82
2023/03/09 12:40:50;;;;;;;;;;;17.30;98.00;;;;;;5024153;28;20056;-83
2023/03/09 12:43:33;;;;;;;;;;;17.60;97.90;;;;;;5034308;28;19928;-82
2023/03/09 12:46:38;;;;;;;1.15;1.10;;;17.70;97.80;;;;;;5033880;28;20246;-81
2023/03/09 12:49:16;;;;;;;2.35;1.38;;;17.40;97.80;;;;;;5025484;28;20256;-81
2023/03/09 12:51:48;;;;;;;1.67;1.35;;;17.10;98.00;;;;;;5033530;28;20224;-81
2023/03/09 12:54:23;;;;;;;2.72;1.10;;;17.10;98.00;;;;;;5033415;28;20221;-81
2023/03/09 12:56:53;;;;;;;1.45;1.10;;;17.10;98.00;;;;;;5032533;28;20116;-83
2023/03/09 12:59:25;;;;;;;;;;;17.50;97.70;;;;;;5031510;28;20051;-81
2023/03/09 13:01:53;;;;;;;;;;;17.70;97.20;;;;;;5014607;28;19971;-82
2023/03/09 13:04:25;;;;;;;1.15;1.13;;;17.90;97.20;;;;;;5022929;28;20046;-82
2023/03/09 13:06:55;;;;;;;;;;;17.70;97.50;;;;;;5033341;28;20114;-81
2023/03/09 13:09:35;;;;;;;2.53;1.98;;;17.90;97.20;;;;;;5033309;28;20238;-82
2023/03/09 13:12:14;;;;;;;1.77;1.40;;;17.60;97.00;;;;;;5049319;28;20126;-83
2023/03/09 13:15:01;;;;;;;;;;;17.70;97.00;;;;;;5053005;28;20079;-83
2023/03/09 13:17:38;;;;;;;5.40;4.10;;;18.20;96.70;;;;;;5029739;28;20082;-82